Time;durP1;ratioP1;P1;durP2;ratioP2;P2;SDS_P1;SDS_P2;PMS_P1;PMS_P2;Temp;Humidity;BMP_temperature;BMP_pressure;BME280_temperature;BME280_humidity;BME280_pressure;Samples;Min_cycle;Max_cycle;Signal;HPM_P1;HPM_P2
2021/11/05 00:00:47;;;;;;;1007.97;899.07;;;5.60;99.90;;;;;;5094486;28;20494;-83
2021/11/05 00:03:14;;;;;;;1016.80;909.50;;;5.60;99.90;;;;;;5093230;28;21001;-83
2021/11/05 00:05:41;;;;;;;1022.03;914.23;;;5.60;99.90;;;;;;5094355;28;20964;-83
2021/11/05 00:08:10;;;;;;;1027.30;917.37;;;5.70;99.90;;;;;;5094237;28;20545;-83
2021/11/05 00:10:40;;;;;;;1022.37;911.87;;;5.80;99.90;;;;;;5094565;28;20485;-83
2021/11/05 00:13:07;;;;;;;1031.13;921.03;;;5.90;99.90;;;;;;5094348;28;20500;-83
2021/11/05 00:15:37;;;;;;;1026.93;915.73;;;6.10;99.90;;;;;;5094070;28;20445;-82
2021/11/05 00:18:04;;;;;;;1028.30;917.33;;;6.10;99.90;;;;;;5092951;28;20489;-83
2021/11/05 00:20:32;;;;;;;1032.50;921.33;;;6.20;99.90;;;;;;5094038;28;20445;-83
2021/11/05 00:22:59;;;;;;;1016.30;909.67;;;6.50;99.90;;;;;;5093958;28;20769;-83
2021/11/05 00:25:26;;;;;;;1012.23;904.83;;;6.60;99.90;;;;;;5093889;28;20556;-83
2021/11/05 00:27:53;;;;;;;997.43;892.30;;;6.70;99.90;;;;;;5093901;28;20560;-83
2021/11/05 00:30:20;;;;;;;998.67;895.00;;;6.70;99.90;;;;;;5094007;28;20958;-83
2021/11/05 00:32:48;;;;;;;998.17;892.83;;;6.80;99.90;;;;;;5092692;28;20552;-83
2021/11/05 00:35:16;;;;;;;1001.23;894.63;;;7.00;99.90;;;;;;5093989;28;20510;-83
2021/11/05 00:37:44;;;;;;;995.90;892.00;;;7.00;99.90;;;;;;5093691;28;20458;-83
2021/11/05 00:40:12;;;;;;;996.03;891.70;;;7.00;99.90;;;;;;5093732;28;20454;-83
2021/11/05 00:42:40;;;;;;;995.97;889.57;;;7.10;99.90;;;;;;5093754;28;20874;-83
2021/11/05 00:45:09;;;;;;;991.47;884.60;;;7.30;99.90;;;;;;5093509;28;20488;-83
2021/11/05 00:47:37;;;;;;;971.03;868.53;;;7.40;99.90;;;;;;5092398;28;20456;-83
2021/11/05 00:50:06;;;;;;;973.67;870.53;;;7.50;99.90;;;;;;5093294;28;20485;-83
2021/11/05 00:52:33;;;;;;;970.57;866.60;;;7.50;99.90;;;;;;5093097;28;20489;-83
2021/11/05 00:55:00;;;;;;;956.50;855.80;;;7.50;99.90;;;;;;5093570;28;20937;-83
2021/11/05 00:57:27;;;;;;;947.23;848.33;;;7.50;99.90;;;;;;5093362;28;20957;-83
2021/11/05 00:59:54;;;;;;;958.17;858.97;;;7.50;99.90;;;;;;5093513;28;20482;-83
2021/11/05 01:02:23;;;;;;;951.03;851.83;;;7.50;99.90;;;;;;5093166;28;20503;-83
2021/11/05 01:04:49;;;;;;;965.60;864.00;;;7.60;99.90;;;;;;5092144;28;20894;-83
2021/11/05 01:07:18;;;;;;;970.23;869.27;;;7.60;99.90;;;;;;5093342;28;20465;-83
2021/11/05 01:09:45;;;;;;;972.73;870.93;;;7.50;99.90;;;;;;5093306;28;20507;-83
2021/11/05 01:12:12;;;;;;;966.17;863.67;;;7.50;99.90;;;;;;5093228;28;20801;-83
2021/11/05 01:14:39;;;;;;;983.07;880.77;;;7.50;99.90;;;;;;5093171;28;20540;-83
2021/11/05 01:17:06;;;;;;;971.33;868.93;;;7.50;99.90;;;;;;5093149;28;20495;-82
2021/11/05 01:19:33;;;;;;;970.53;867.33;;;7.40;99.90;;;;;;5091965;28;20481;-83
2021/11/05 01:22:01;;;;;;;982.70;879.20;;;7.50;99.90;;;;;;5093179;28;20488;-83
2021/11/05 01:24:30;;;;;;;977.00;872.60;;;7.50;99.90;;;;;;5093022;28;20916;-83
2021/11/05 01:26:57;;;;;;;982.90;880.37;;;7.40;99.90;;;;;;5092787;28;20523;-83
2021/11/05 01:29:25;;;;;;;977.70;872.90;;;7.60;99.90;;;;;;5092971;28;20524;-83
2021/11/05 01:31:53;;;;;;;971.73;869.53;;;7.40;99.90;;;;;;5092859;28;20458;-83
2021/11/05 01:34:20;;;;;;;972.07;869.67;;;7.50;99.90;;;;;;5091952;28;20809;-83
2021/11/05 01:36:47;;;;;;;946.33;847.47;;;7.40;99.90;;;;;;5093287;28;20485;-83
2021/11/05 01:39:16;;;;;;;954.70;853.43;;;7.40;99.90;;;;;;5092916;28;20481;-83
2021/11/05 01:41:45;;;;;;;976.90;873.13;;;7.40;99.90;;;;;;5092937;28;21020;-83
2021/11/05 01:44:13;;;;;;;967.13;863.43;;;7.40;99.90;;;;;;5092823;28;20488;-83
2021/11/05 01:46:42;;;;;;;964.43;860.57;;;7.40;99.90;;;;;;5092864;28;21011;-83
2021/11/05 01:49:10;;;;;;;973.23;869.17;;;7.30;99.90;;;;;;5091537;28;20458;-83
2021/11/05 01:51:41;;;;;;;968.27;862.60;;;7.40;99.90;;;;;;5092974;28;20453;-83
2021/11/05 01:54:10;;;;;;;991.07;885.03;;;7.40;99.90;;;;;;5093211;28;20457;-83
2021/11/05 01:56:37;;;;;;;976.97;874.60;;;7.50;99.90;;;;;;5092614;28;20568;-83
2021/11/05 01:59:06;;;;;;;955.10;853.90;;;7.40;99.90;;;;;;5092797;28;20523;-83
2021/11/05 02:01:34;;;;;;;972.63;867.93;;;7.50;99.90;;;;;;5092926;28;20460;-83
2021/11/05 02:04:01;;;;;;;969.33;866.60;;;7.60;99.90;;;;;;5094753;28;20516;-83
2021/11/05 02:06:30;;;;;;;960.87;860.50;;;7.60;99.90;;;;;;5096750;28;20454;-83
2021/11/05 02:09:01;;;;;;;958.63;861.27;;;7.50;99.90;;;;;;5096657;28;20450;-83
2021/11/05 02:11:28;;;;;;;954.77;859.17;;;7.50;99.90;;;;;;5096470;28;20948;-84
2021/11/05 02:13:56;;;;;;;953.30;855.77;;;7.40;99.90;;;;;;5096559;28;20860;-83
2021/11/05 02:16:25;;;;;;;958.03;860.77;;;7.40;99.90;;;;;;5096606;28;20867;-84
2021/11/05 02:18:52;;;;;;;957.03;858.87;;;7.20;99.90;;;;;;5095284;28;20485;-83
2021/11/05 02:21:22;;;;;;;944.23;846.97;;;7.30;99.90;;;;;;5096726;28;20442;-83
2021/11/05 02:23:55;;;;;;;942.80;846.93;;;7.30;99.90;;;;;;5096200;28;20465;-83
2021/11/05 02:26:22;;;;;;;922.93;827.27;;;7.50;99.90;;;;;;5096102;28;20481;-83
2021/11/05 02:28:49;;;;;;;930.63;838.20;;;7.50;99.90;;;;;;5096513;28;20538;-83
2021/11/05 02:31:16;;;;;;;930.37;835.53;;;7.50;99.90;;;;;;5096406;28;20488;-83
2021/11/05 02:33:42;;;;;;;941.23;845.67;;;7.50;99.90;;;;;;5095170;28;20823;-83
2021/11/05 02:36:09;;;;;;;940.00;845.83;;;7.50;99.90;;;;;;5096070;28;20446;-83
2021/11/05 02:38:36;;;;;;;935.80;842.80;;;7.60;99.90;;;;;;5096037;28;20453;-83
2021/11/05 02:41:05;;;;;;;892.10;808.97;;;7.50;99.90;;;;;;5096144;28;20457;-83
2021/11/05 02:43:32;;;;;;;870.67;788.30;;;7.40;99.90;;;;;;5095928;28;20461;-83
2021/11/05 02:46:00;;;;;;;884.63;800.63;;;7.50;99.90;;;;;;5096058;28;20480;-83
2021/11/05 02:48:27;;;;;;;861.90;781.57;;;7.40;99.90;;;;;;5094983;28;20450;-83
2021/11/05 02:50:55;;;;;;;848.73;769.33;;;7.50;99.90;;;;;;5095706;28;20508;-83
2021/11/05 02:53:22;;;;;;;874.93;794.20;;;7.50;99.90;;;;;;5096095;28;20457;-83
2021/11/05 02:55:49;;;;;;;861.30;782.33;;;7.40;99.90;;;;;;5095848;28;20461;-83
2021/11/05 02:58:18;;;;;;;868.50;787.90;;;7.50;99.90;;;;;;5095869;28;20450;-83
2021/11/05 03:00:45;;;;;;;884.90;804.43;;;7.50;99.90;;;;;;5095781;28;20515;-83
2021/11/05 03:03:12;;;;;;;887.23;806.73;;;7.50;99.90;;;;;;5094674;28;20453;-83
2021/11/05 03:05:39;;;;;;;880.37;798.20;;;7.50;99.90;;;;;;5095379;28;20702;-83
2021/11/05 03:08:09;;;;;;;875.83;794.53;;;7.60;99.90;;;;;;5095582;28;20548;-83
2021/11/05 03:10:37;;;;;;;887.70;803.80;;;7.50;99.90;;;;;;5095555;28;20450;-83
2021/11/05 03:13:04;;;;;;;887.33;805.67;;;7.60;99.90;;;;;;5095384;28;20457;-83
2021/11/05 03:15:32;;;;;;;898.57;813.27;;;7.40;99.90;;;;;;5094705;28;20460;-83
2021/11/05 03:18:00;;;;;;;915.83;829.60;;;7.50;99.90;;;;;;5094032;28;20462;-83
2021/11/05 03:20:28;;;;;;;915.17;828.07;;;7.60;99.90;;;;;;5095348;28;20462;-83
2021/11/05 03:22:55;;;;;;;920.23;833.80;;;7.60;99.90;;;;;;5095278;28;20442;-83
2021/11/05 03:25:21;;;;;;;915.90;829.63;;;7.50;99.90;;;;;;5094851;28;20498;-83
2021/11/05 03:27:48;;;;;;;910.60;826.00;;;7.50;99.90;;;;;;5095089;28;20956;-83
2021/11/05 03:30:19;;;;;;;921.63;834.63;;;7.50;99.90;;;;;;5095150;28;20453;-83
2021/11/05 03:32:47;;;;;;;930.57;842.43;;;7.50;99.90;;;;;;5093872;28;20460;-83
2021/11/05 03:35:15;;;;;;;933.23;845.90;;;7.50;99.90;;;;;;5095186;28;20484;-83
2021/11/05 03:37:43;;;;;;;930.47;842.17;;;7.50;99.90;;;;;;5095179;28;20533;-83
2021/11/05 03:40:12;;;;;;;924.37;837.37;;;7.50;99.90;;;;;;5094925;28;20900;-83
2021/11/05 03:42:39;;;;;;;905.27;819.03;;;7.40;99.90;;;;;;5095134;28;20478;-83
2021/11/05 03:45:08;;;;;;;900.93;815.97;;;7.40;99.90;;;;;;5094648;28;20481;-83
2021/11/05 03:47:36;;;;;;;915.33;828.13;;;7.40;99.90;;;;;;5094343;28;20457;-83
2021/11/05 03:50:04;;;;;;;910.77;824.57;;;7.50;99.90;;;;;;5094306;28;20454;-83
2021/11/05 03:52:31;;;;;;;901.10;814.80;;;7.50;99.90;;;;;;5094841;28;20461;-83
2021/11/05 03:54:58;;;;;;;909.50;820.37;;;7.50;99.90;;;;;;5094715;28;20460;-83
2021/11/05 03:57:26;;;;;;;912.83;824.80;;;7.40;99.90;;;;;;5094626;28;20925;-83
2021/11/05 03:59:53;;;;;;;907.10;819.80;;;7.50;99.90;;;;;;5094438;28;20857;-83
2021/11/05 04:02:20;;;;;;;906.63;820.90;;;7.40;99.90;;;;;;5094805;28;20926;-83
2021/11/05 04:04:46;;;;;;;900.83;815.47;;;7.50;99.90;;;;;;5093366;28;20915;-83
2021/11/05 04:07:15;;;;;;;910.57;824.17;;;7.50;99.90;;;;;;5094423;28;20489;-83
2021/11/05 04:09:42;;;;;;;890.63;807.43;;;7.50;99.90;;;;;;5094371;28;20549;-83
2021/11/05 04:12:09;;;;;;;891.33;807.97;;;7.50;99.90;;;;;;5094434;28;20519;-83
2021/11/05 04:14:36;;;;;;;904.63;820.57;;;7.50;99.90;;;;;;5094376;28;20526;-83
2021/11/05 04:17:04;;;;;;;894.63;810.47;;;7.40;99.90;;;;;;5094392;28;20854;-83
2021/11/05 04:19:30;;;;;;;898.87;812.93;;;7.40;99.90;;;;;;5057614;28;20453;-83
2021/11/05 04:21:57;;;;;;;913.70;828.07;;;7.40;99.90;;;;;;5094218;28;20450;-83
2021/11/05 04:24:26;;;;;;;905.60;819.70;;;7.50;99.90;;;;;;5094107;28;20980;-83
2021/11/05 04:26:52;;;;;;;907.33;821.20;;;7.50;99.90;;;;;;5092894;28;20470;-83
2021/11/05 04:29:19;;;;;;;868.80;790.67;;;7.60;99.90;;;;;;5094043;28;20467;-83
2021/11/05 04:31:47;;;;;;;853.97;777.80;;;7.50;99.90;;;;;;5094062;28;20454;-83
2021/11/05 04:34:14;;;;;;;856.50;779.20;;;7.50;99.90;;;;;;5092595;28;20458;-83
2021/11/05 04:36:41;;;;;;;847.60;772.43;;;7.50;99.90;;;;;;5093788;28;20536;-83
2021/11/05 04:39:14;;;;;;;840.67;766.57;;;7.40;99.90;;;;;;5094110;28;20534;-83
2021/11/05 04:41:42;;;;;;;816.27;746.10;;;7.40;99.90;;;;;;5093663;28;20446;-83
2021/11/05 04:44:09;;;;;;;821.23;749.33;;;7.40;99.90;;;;;;5093697;28;20489;-83
2021/11/05 04:46:36;;;;;;;805.33;738.13;;;7.40;99.90;;;;;;5093709;28;20458;-83
2021/11/05 04:49:03;;;;;;;791.20;727.77;;;7.50;99.90;;;;;;5092461;28;20464;-83
2021/11/05 04:51:30;;;;;;;791.77;730.07;;;7.40;99.90;;;;;;5093602;28;20484;-83
2021/11/05 04:53:57;;;;;;;794.73;733.07;;;7.30;99.90;;;;;;5041718;28;20450;-83
2021/11/05 04:56:24;;;;;;;803.77;740.33;;;7.30;99.90;;;;;;5093932;28;20453;-82
2021/11/05 04:58:55;;;;;;;811.60;745.00;;;7.30;99.90;;;;;;5094003;28;20549;-83
2021/11/05 05:01:22;;;;;;;817.10;749.03;;;7.30;99.90;;;;;;5093608;28;20449;-83
2021/11/05 05:03:49;;;;;;;806.03;737.90;;;7.40;99.90;;;;;;5092252;28;20503;-83
2021/11/05 05:06:15;;;;;;;787.50;721.63;;;7.30;99.90;;;;;;5093428;28;20988;-82
2021/11/05 05:08:42;;;;;;;792.80;728.40;;;7.30;99.90;;;;;;5093385;28;21011;-83
2021/11/05 05:11:12;;;;;;;801.97;735.97;;;7.20;99.90;;;;;;5094377;28;20485;-82
2021/11/05 05:13:39;;;;;;;806.67;740.17;;;7.40;99.90;;;;;;5093491;28;20492;-83
2021/11/05 05:16:07;;;;;;;823.60;755.80;;;7.30;99.90;;;;;;5093429;28;20454;-83
2021/11/05 05:18:36;;;;;;;818.67;750.47;;;7.30;99.90;;;;;;5092105;28;20477;-83
2021/11/05 05:21:03;;;;;;;807.77;740.20;;;7.30;99.90;;;;;;5093274;28;20454;-82
2021/11/05 05:23:30;;;;;;;808.63;743.03;;;7.30;99.90;;;;;;5092870;28;20490;-83
2021/11/05 05:25:57;;;;;;;804.10;737.80;;;7.30;99.90;;;;;;5092637;28;20486;-83
2021/11/05 05:28:24;;;;;;;795.17;730.47;;;7.30;99.90;;;;;;5092906;28;20496;-83
2021/11/05 05:30:58;;;;;;;799.23;734.03;;;7.30;99.90;;;;;;5092965;28;20489;-83
2021/11/05 05:33:28;;;;;;;810.67;744.40;;;7.30;99.90;;;;;;5091572;28;20456;-83
2021/11/05 05:35:55;;;;;;;799.17;734.57;;;7.40;99.90;;;;;;5092774;28;20445;-83
2021/11/05 05:38:22;;;;;;;803.40;737.17;;;7.30;99.90;;;;;;5092589;28;20485;-83
2021/11/05 05:40:55;;;;;;;818.50;752.63;;;7.30;99.90;;;;;;5092760;28;20540;-83
2021/11/05 05:43:22;;;;;;;811.80;747.10;;;7.20;99.90;;;;;;5093181;28;20865;-83
2021/11/05 05:45:49;;;;;;;798.23;734.83;;;7.20;99.90;;;;;;5092959;28;20905;-82
2021/11/05 05:48:16;;;;;;;781.00;719.20;;;7.20;99.90;;;;;;5092431;28;20549;-83
2021/11/05 05:50:44;;;;;;;788.23;725.93;;;7.20;99.90;;;;;;5092484;28;20453;-83
2021/11/05 05:53:11;;;;;;;799.80;737.97;;;7.10;99.90;;;;;;5092799;28;20477;-83
2021/11/05 05:55:39;;;;;;;782.00;721.87;;;7.10;99.90;;;;;;5092767;28;20541;-83
2021/11/05 05:58:06;;;;;;;781.53;722.93;;;7.10;99.90;;;;;;5092884;28;20485;-83
2021/11/05 06:00:39;;;;;;;788.23;730.73;;;7.00;99.90;;;;;;5093669;28;20450;-83
2021/11/05 06:03:06;;;;;;;768.53;712.60;;;7.00;99.90;;;;;;5091641;28;20969;-83
2021/11/05 06:05:33;;;;;;;776.10;718.97;;;7.00;99.90;;;;;;5092711;28;20489;-84
2021/11/05 06:08:06;;;;;;;780.27;723.90;;;7.00;99.90;;;;;;5092721;28;20511;-83
2021/11/05 06:10:33;;;;;;;780.37;723.00;;;7.00;99.90;;;;;;5092610;28;20877;-83
2021/11/05 06:13:00;;;;;;;776.73;719.73;;;6.90;99.90;;;;;;5092841;28;20484;-84
2021/11/05 06:15:27;;;;;;;781.23;723.47;;;7.00;99.90;;;;;;5092563;28;20461;-84
2021/11/05 06:17:54;;;;;;;778.63;720.13;;;6.90;99.90;;;;;;5091382;28;20960;-83
2021/11/05 06:20:21;;;;;;;809.27;749.10;;;6.90;99.90;;;;;;5092734;28;20453;-84
2021/11/05 06:22:49;;;;;;;812.60;752.20;;;7.00;99.90;;;;;;5092494;28;20457;-83
2021/11/05 06:25:17;;;;;;;805.53;744.43;;;7.00;99.90;;;;;;5092297;28;20481;-84
2021/11/05 06:27:46;;;;;;;822.27;760.50;;;6.90;99.90;;;;;;5092415;28;20458;-84
2021/11/05 06:30:14;;;;;;;813.80;751.07;;;6.90;99.90;;;;;;5092392;28;20803;-84
2021/11/05 06:32:43;;;;;;;814.70;751.70;;;6.90;99.90;;;;;;5091678;28;20453;-84
2021/11/05 06:35:11;;;;;;;832.10;767.10;;;6.90;99.90;;;;;;5092402;28;20507;-84
2021/11/05 06:37:40;;;;;;;821.43;756.87;;;7.00;99.90;;;;;;5092374;28;20453;-84
2021/11/05 06:40:11;;;;;;;820.60;754.77;;;7.00;99.90;;;;;;5092442;28;20450;-84
2021/11/05 06:42:42;;;;;;;811.07;745.90;;;7.00;99.90;;;;;;5092177;28;20453;-84
2021/11/05 06:45:10;;;;;;;827.70;761.40;;;7.00;99.90;;;;;;5092170;28;20564;-84
2021/11/05 06:47:39;;;;;;;821.13;753.83;;;7.00;99.90;;;;;;5092315;28;20454;-84
2021/11/05 06:50:13;;;;;;;825.00;757.77;;;7.00;99.90;;;;;;5093220;28;20938;-83
2021/11/05 06:52:40;;;;;;;833.87;766.40;;;7.10;99.90;;;;;;5096144;28;20461;-84
2021/11/05 06:55:08;;;;;;;825.60;757.50;;;7.00;99.90;;;;;;5095767;28;20496;-83
2021/11/05 06:57:35;;;;;;;822.40;756.03;;;7.00;99.90;;;;;;5095943;28;20545;-83
2021/11/05 07:00:05;;;;;;;828.93;760.87;;;7.00;99.90;;;;;;5095727;28;20450;-83
2021/11/05 07:02:32;;;;;;;823.10;755.30;;;7.00;99.90;;;;;;5095723;28;20485;-83
2021/11/05 07:04:59;;;;;;;821.73;755.10;;;7.00;99.90;;;;;;5094361;28;20544;-84
2021/11/05 07:07:26;;;;;;;814.83;748.37;;;7.10;99.90;;;;;;5095703;28;20870;-83
2021/11/05 07:09:53;;;;;;;811.93;745.70;;;7.20;99.90;;;;;;5095824;28;20545;-80
2021/11/05 07:12:26;;;;;;;809.73;744.53;;;7.20;99.90;;;;;;5095501;28;20458;-84
2021/11/05 07:14:53;;;;;;;802.53;737.37;;;7.10;99.90;;;;;;5095418;28;20450;-83
2021/11/05 07:17:24;;;;;;;806.70;742.37;;;7.10;99.90;;;;;;5095511;28;20892;-83
2021/11/05 07:19:51;;;;;;;808.80;743.43;;;7.10;99.90;;;;;;5094375;28;20960;-83
2021/11/05 07:22:18;;;;;;;806.17;740.20;;;7.10;99.90;;;;;;5095419;28;20477;-83
2021/11/05 07:24:45;;;;;;;798.63;734.23;;;7.20;99.90;;;;;;5095264;28;20472;-83
2021/11/05 07:27:13;;;;;;;803.93;738.90;;;7.20;99.90;;;;;;5095126;28;20501;-80
2021/11/05 07:29:45;;;;;;;788.63;723.37;;;7.30;99.90;;;;;;5095128;28;21147;-84
2021/11/05 07:32:14;;;;;;;795.20;731.07;;;7.40;99.90;;;;;;5076172;28;20449;-84
2021/11/05 07:34:42;;;;;;;795.70;732.37;;;7.40;99.90;;;;;;5093805;28;20537;-84
2021/11/05 07:37:14;;;;;;;781.97;721.33;;;7.50;99.90;;;;;;5095089;28;20461;-85
2021/11/05 07:39:42;;;;;;;791.40;732.20;;;7.50;99.90;;;;;;5095035;28;20815;-84
2021/11/05 07:42:10;;;;;;;789.93;731.40;;;7.50;99.90;;;;;;5095152;28;20458;-81
2021/11/05 07:44:38;;;;;;;773.93;715.67;;;7.50;99.90;;;;;;5094956;28;20453;-83
2021/11/05 07:47:05;;;;;;;778.43;720.67;;;7.60;99.90;;;;;;5094400;28;20491;-83
2021/11/05 07:49:32;;;;;;;774.20;716.10;;;7.50;99.90;;;;;;5093588;28;20462;-83
2021/11/05 07:52:01;;;;;;;777.67;719.70;;;7.50;99.90;;;;;;5094757;28;21027;-83
2021/11/05 07:54:28;;;;;;;765.73;707.20;;;7.60;99.90;;;;;;5094707;28;20485;-83
2021/11/05 07:56:55;;;;;;;759.73;701.07;;;7.70;99.90;;;;;;5094526;28;20460;-83
2021/11/05 07:59:25;;;;;;;757.70;700.03;;;7.80;99.90;;;;;;5092279;28;20450;-83
2021/11/05 08:01:52;;;;;;;760.87;705.80;;;8.00;99.90;;;;;;5092759;28;20952;-83
2021/11/05 08:04:19;;;;;;;726.57;679.03;;;8.10;99.90;;;;;;5091749;28;20515;-84
2021/11/05 08:06:46;;;;;;;710.33;666.30;;;8.20;99.90;;;;;;5092945;28;20493;-83
2021/11/05 08:09:14;;;;;;;661.87;624.07;;;8.30;99.90;;;;;;5092607;28;20490;-83
2021/11/05 08:11:41;;;;;;;667.83;629.77;;;8.30;99.90;;;;;;5092748;28;20533;-84
2021/11/05 08:14:08;;;;;;;639.57;604.17;;;8.40;99.90;;;;;;5093162;28;20482;-83
2021/11/05 08:16:35;;;;;;;585.77;555.37;;;8.40;99.90;;;;;;5092894;28;20875;-83
2021/11/05 08:19:01;;;;;;;545.33;517.37;;;8.40;99.90;;;;;;5091714;28;20460;-83
2021/11/05 08:21:28;;;;;;;550.50;522.97;;;8.40;99.90;;;;;;5092937;28;20503;-83
2021/11/05 08:23:56;;;;;;;606.40;574.70;;;8.40;99.90;;;;;;5092652;28;20556;-83
2021/11/05 08:26:26;;;;;;;565.30;537.03;;;8.40;99.90;;;;;;5092542;28;20504;-83
2021/11/05 08:28:53;;;;;;;440.37;419.60;;;8.60;99.90;;;;;;5090881;28;20502;-83
2021/11/05 08:31:20;;;;;;;453.27;432.57;;;8.60;99.90;;;;;;5092663;28;20487;-83
2021/11/05 08:33:47;;;;;;;404.90;386.70;;;8.60;99.90;;;;;;5091580;28;20482;-83
2021/11/05 08:36:19;;;;;;;423.07;403.70;;;8.40;99.90;;;;;;5092757;28;20550;-83
2021/11/05 08:38:47;;;;;;;428.60;407.77;;;8.40;99.90;;;;;;5092572;28;20449;-83
2021/11/05 08:41:17;;;;;;;430.97;411.87;;;8.40;99.90;;;;;;5092287;28;20542;-83
2021/11/05 08:43:48;;;;;;;478.10;456.80;;;8.30;99.90;;;;;;5092655;28;20454;-83
2021/11/05 08:46:17;;;;;;;543.63;518.13;;;8.30;99.90;;;;;;5092318;28;20551;-83
2021/11/05 08:48:44;;;;;;;486.80;464.30;;;8.40;99.90;;;;;;5092378;28;20455;-83
2021/11/05 08:51:12;;;;;;;475.13;452.53;;;8.50;99.90;;;;;;5093580;28;20508;-83
2021/11/05 08:53:40;;;;;;;533.47;507.97;;;8.60;99.90;;;;;;5093663;28;20451;-83
2021/11/05 08:56:07;;;;;;;490.27;468.17;;;8.80;99.90;;;;;;5093485;28;20453;-81
2021/11/05 08:58:38;;;;;;;425.07;405.97;;;9.10;99.90;;;;;;5093466;28;20453;-84
2021/11/05 09:01:07;;;;;;;436.17;416.40;;;9.00;99.90;;;;;;5093248;28;20492;-84
2021/11/05 09:03:36;;;;;;;391.17;374.27;;;9.30;99.90;;;;;;5092355;28;20458;-83
2021/11/05 09:06:04;;;;;;;265.47;252.13;;;9.50;99.90;;;;;;5093281;28;20980;-83
2021/11/05 09:08:32;;;;;;;151.20;143.20;;;9.70;99.50;;;;;;5093091;28;21009;-83
2021/11/05 09:10:59;;;;;;;96.63;91.37;;;9.80;98.00;;;;;;5093287;28;20485;-83
2021/11/05 09:13:26;;;;;;;83.43;77.83;;;9.90;97.30;;;;;;5092766;28;20460;-83
2021/11/05 09:15:53;;;;;;;68.37;63.37;;;9.90;96.70;;;;;;5093285;28;20729;-83
2021/11/05 09:18:21;;;;;;;68.20;63.70;;;9.90;96.00;;;;;;5092121;28;20454;-83
2021/11/05 09:20:48;;;;;;;60.17;56.13;;;9.90;96.20;;;;;;5093114;28;20461;-83
2021/11/05 09:23:15;;;;;;;47.77;43.90;;;10.00;95.20;;;;;;5092886;28;20469;-83
2021/11/05 09:25:42;;;;;;;43.57;40.00;;;10.00;94.50;;;;;;5093090;28;20887;-83
2021/11/05 09:28:18;;;;;;;36.83;33.33;;;10.10;94.00;;;;;;5093098;28;20532;-83
2021/11/05 09:30:48;;;;;;;43.10;39.20;;;10.00;93.60;;;;;;5092860;28;20453;-85
2021/11/05 09:33:27;;;;;;;40.37;36.43;;;10.20;93.50;;;;;;5091547;28;20457;-84
2021/11/05 09:36:04;;;;;;;31.77;28.77;;;10.30;93.20;;;;;;5092822;28;20464;-84
2021/11/05 09:39:04;;;;;;;27.37;24.60;;;10.40;91.10;;;;;;5092880;28;20944;-86
2021/11/05 09:41:33;;;;;;;29.10;24.93;;;10.70;90.70;;;;;;5091341;28;20453;-85
2021/11/05 09:44:05;;;;;;;31.33;23.90;;;10.70;90.80;;;;;;5092845;28;20535;-84
2021/11/05 09:46:43;;;;;;;;;;;;;;;;;;;;;
2021/11/05 09:49:15;;;;;;;29.07;21.03;;;10.90;86.90;;;;;;5088053;28;20449;-83
2021/11/05 09:51:56;;;;;;;;;;;;;;;;;;;;;
2021/11/05 09:54:40;;;;;;;;;;;;;;;;;;;;;
2021/11/05 09:57:16;;;;;;;27.97;23.30;;;11.10;86.30;;;;;;5022870;28;20853;-83
2021/11/05 10:00:03;;;;;;;23.97;20.77;;;11.10;83.10;;;;;;5091527;28;20464;-83
2021/11/05 10:02:36;;;;;;;26.90;21.00;;;11.10;84.00;;;;;;5091621;28;20458;-83
2021/11/05 10:05:10;;;;;;;25.87;19.77;;;11.10;84.00;;;;;;5090289;28;20526;-83
2021/11/05 10:07:59;;;;;;;23.10;19.53;;;11.20;82.50;;;;;;5091342;28;20892;-83
2021/11/05 10:10:54;;;;;;;31.63;22.30;;;11.20;81.80;;;;;;5091456;28;20476;-83
2021/11/05 10:13:28;;;;;;;27.30;20.90;;;11.00;83.20;;;;;;5087649;28;20791;-83
2021/11/05 10:15:57;;;;;;;30.97;19.43;;;11.00;84.60;;;;;;5091340;28;21367;-83
2021/11/05 10:18:29;;;;;;;24.13;19.80;;;11.00;83.20;;;;;;5090644;28;20453;-83
2021/11/05 10:21:40;;;;;;;;;;;;;;;;;;;;;
2021/11/05 10:24:17;;;;;;;21.87;16.70;;;11.60;78.40;;;;;;5092256;28;20469;-82
2021/11/05 10:26:45;;;;;;;23.07;16.57;;;11.90;77.60;;;;;;5096230;28;20481;-83
2021/11/05 10:29:28;;;;;;;22.40;17.10;;;12.00;76.40;;;;;;5096407;28;20457;-83
2021/11/05 10:32:01;;;;;;;22.70;16.07;;;12.20;75.20;;;;;;5096244;28;20980;-83
2021/11/05 10:34:49;;;;;;;19.40;14.70;;;12.80;73.60;;;;;;5094642;28;20487;-83
2021/11/05 10:37:26;;;;;;;20.50;15.67;;;12.60;70.00;;;;;;5096378;28;20529;-83
2021/11/05 10:39:56;;;;;;;22.87;14.23;;;12.50;70.90;;;;;;5096233;28;20449;-83
2021/11/05 10:42:31;;;;;;;23.40;14.00;;;12.30;72.70;;;;;;5096118;28;20458;-83
2021/11/05 10:45:12;;;;;;;18.13;13.40;;;12.10;73.90;;;;;;5096037;28;20449;-83
2021/11/05 10:48:03;;;;;;;27.00;12.80;;;12.10;72.90;;;;;;5095837;28;20516;-83
2021/11/05 10:50:38;;;;;;;20.67;12.57;;;12.40;71.80;;;;;;5096174;28;20461;-83
2021/11/05 10:53:18;;;;;;;18.00;14.07;;;12.50;72.30;;;;;;5095932;28;20582;-83
2021/11/05 10:55:52;;;;;;;15.93;11.67;;;12.50;72.10;;;;;;5095869;28;20459;-83
2021/11/05 10:58:26;;;;;;;19.43;12.60;;;12.40;69.70;;;;;;5095904;28;20449;-83
2021/11/05 11:00:57;;;;;;;18.33;12.20;;;12.30;71.60;;;;;;5095722;28;20975;-83
2021/11/05 11:03:31;;;;;;;19.23;13.30;;;12.20;72.50;;;;;;5094306;28;20445;-83
2021/11/05 11:06:07;;;;;;;19.50;14.47;;;11.90;71.90;;;;;;5095638;28;20833;-83
2021/11/05 11:08:41;;;;;;;15.03;12.10;;;11.80;73.80;;;;;;5095296;28;20990;-83
2021/11/05 11:11:21;;;;;;;18.63;13.40;;;11.80;72.40;;;;;;5095468;28;20442;-83
2021/11/05 11:13:53;;;;;;;23.30;13.67;;;12.00;72.80;;;;;;5095611;28;20445;-83
2021/11/05 11:16:28;;;;;;;18.50;11.60;;;12.20;72.30;;;;;;5095494;28;20446;-83
2021/11/05 11:19:03;;;;;;;23.67;13.00;;;12.30;70.60;;;;;;5094350;28;20454;-82
2021/11/05 11:21:34;;;;;;;16.30;11.03;;;12.30;71.10;;;;;;5095459;28;20551;-82
2021/11/05 11:24:02;;;;;;;16.20;11.37;;;12.00;71.10;;;;;;5095043;28;20889;-82
2021/11/05 11:26:31;;;;;;;18.40;12.90;;;12.20;72.80;;;;;;5094396;28;20478;-82
2021/11/05 11:28:58;;;;;;;19.17;13.97;;;12.20;72.30;;;;;;5095099;28;20466;-82
2021/11/05 11:31:30;;;;;;;21.20;13.70;;;12.10;73.80;;;;;;5095290;28;20454;-82
2021/11/05 11:34:02;;;;;;;23.23;13.17;;;12.40;71.20;;;;;;5093959;28;20457;-83
2021/11/05 11:36:32;;;;;;;20.27;12.20;;;12.90;71.50;;;;;;5094659;28;20454;-82
2021/11/05 11:39:02;;;;;;;16.90;12.00;;;14.00;68.60;;;;;;5095062;28;20459;-82
2021/11/05 11:41:43;;;;;;;;;;;;;;;;;;;;;
2021/11/05 11:44:20;;;;;;;17.33;11.50;;;14.70;57.90;;;;;;5091915;28;20443;-82
2021/11/05 11:46:55;;;;;;;16.03;9.97;;;14.80;56.20;;;;;;5094664;28;20484;-82
2021/11/05 11:49:51;;;;;;;20.93;9.17;;;14.50;56.80;;;;;;5093498;28;20460;-83
2021/11/05 11:52:32;;;;;;;16.10;10.10;;;15.10;56.00;;;;;;5094872;28;20881;-82
2021/11/05 11:55:14;;;;;;;15.13;9.97;;;15.60;53.00;;;;;;5094669;28;20948;-83
2021/11/05 11:57:43;;;;;;;13.73;9.33;;;16.10;50.10;;;;;;5094583;28;20458;-82
2021/11/05 12:00:15;;;;;;;11.50;8.97;;;15.90;49.40;;;;;;5094652;28;20467;-83
2021/11/05 12:02:44;;;;;;;15.50;7.73;;;16.10;48.60;;;;;;5094534;28;20946;-83
2021/11/05 12:05:40;;;;;;;19.40;9.87;;;16.20;49.70;;;;;;5093635;28;20821;-82
2021/11/05 12:08:21;;;;;;;15.13;8.13;;;15.30;49.30;;;;;;5094316;28;20478;-82
2021/11/05 12:10:54;;;;;;;16.47;8.37;;;14.80;53.30;;;;;;5094458;28;20521;-82
2021/11/05 12:13:45;;;;;;;14.97;8.20;;;14.30;54.60;;;;;;5094608;28;20475;-82
2021/11/05 12:16:24;;;;;;;18.03;9.13;;;13.90;57.80;;;;;;5094329;28;20540;-82
2021/11/05 12:19:17;;;;;;;13.43;7.70;;;13.60;59.80;;;;;;5093017;28;20454;-82
2021/11/05 12:21:46;;;;;;;29.17;9.43;;;13.30;60.90;;;;;;5094238;28;20493;-82
2021/11/05 12:24:29;;;;;;;11.60;7.07;;;13.40;61.60;;;;;;5094163;28;20548;-82
2021/11/05 12:26:59;;;;;;;19.00;8.40;;;13.30;61.80;;;;;;5093775;28;20475;-82
2021/11/05 12:29:54;;;;;;;15.50;10.63;;;12.90;63.60;;;;;;5094033;28;20450;-82
2021/11/05 12:32:45;;;;;;;14.07;8.83;;;12.80;63.50;;;;;;5093943;28;20474;-83
2021/11/05 12:35:27;;;;;;;14.60;7.83;;;12.70;66.40;;;;;;5077578;28;20858;-82
2021/11/05 12:38:06;;;;;;;11.50;8.80;;;12.50;65.90;;;;;;5093908;28;20481;-82
2021/11/05 12:41:14;;;;;;;14.37;8.33;;;12.50;66.80;;;;;;5094098;28;20559;-83